createdAt,value
2018-03-22T00:01:47.642Z,53.30
2018-03-22T00:04:16.664Z,53.40
2018-03-22T00:06:44.889Z,53.40
2018-03-22T00:09:13.138Z,53.50
2018-03-22T00:11:41.410Z,53.80
2018-03-22T00:14:09.645Z,54.10
2018-03-22T00:16:38.645Z,54.60
2018-03-22T00:19:06.870Z,54.50
2018-03-22T00:21:35.112Z,54.70
2018-03-22T00:24:03.350Z,54.60
2018-03-22T00:26:32.365Z,54.90
2018-03-22T00:29:01.351Z,54.90
2018-03-22T00:31:48.527Z,55.20
2018-03-22T00:34:16.755Z,55.20
2018-03-22T00:36:45.151Z,55.30
2018-03-22T00:39:13.478Z,55.40
2018-03-22T00:41:41.638Z,55.40
2018-03-22T00:44:09.907Z,55.50
2018-03-22T00:46:38.121Z,55.60
2018-03-22T00:49:07.113Z,55.60
2018-03-22T00:51:36.134Z,55.60
2018-03-22T00:54:04.359Z,55.50
2018-03-22T00:56:32.622Z,55.50
2018-03-22T00:59:00.846Z,55.40
2018-03-22T01:01:29.846Z,55.50
2018-03-22T01:03:58.097Z,55.50
2018-03-22T01:06:26.359Z,55.70
2018-03-22T01:08:54.592Z,56.50
2018-03-22T01:11:22.813Z,56.10
2018-03-22T01:13:51.054Z,56.40
2018-03-22T01:16:19.313Z,56.80
2018-03-22T01:18:47.590Z,57.00
2018-03-22T01:21:15.842Z,57.20
2018-03-22T01:23:44.844Z,57.10
2018-03-22T01:26:13.914Z,57.00
2018-03-22T01:28:42.131Z,56.90
2018-03-22T01:31:10.367Z,56.80
2018-03-22T01:33:38.605Z,56.90
2018-03-22T01:36:06.876Z,57.00
2018-03-22T01:38:35.109Z,57.00
2018-03-22T01:41:04.100Z,57.50
2018-03-22T01:43:33.182Z,57.60
2018-03-22T01:46:01.377Z,57.50
2018-03-22T01:48:30.410Z,57.50
2018-03-22T01:50:58.633Z,57.50
2018-03-22T01:53:26.930Z,57.60
2018-03-22T01:55:55.174Z,57.40
2018-03-22T01:58:23.421Z,57.60
2018-03-22T02:00:51.642Z,57.50
2018-03-22T02:03:20.677Z,57.50
2018-03-22T02:05:48.904Z,57.50
2018-03-22T02:08:17.145Z,57.50
2018-03-22T02:10:45.497Z,57.50
2018-03-22T02:13:13.732Z,57.50
2018-03-22T02:15:42.053Z,57.50
2018-03-22T02:18:10.341Z,57.60
2018-03-22T02:20:38.582Z,58.20
2018-03-22T02:23:07.573Z,57.50
2018-03-22T02:25:36.594Z,57.60
2018-03-22T02:28:04.856Z,57.50
2018-03-22T02:30:33.077Z,57.50
2018-03-22T02:33:01.420Z,57.50
2018-03-22T02:35:29.692Z,57.40
2018-03-22T02:37:57.934Z,57.30
2018-03-22T02:40:26.964Z,57.30
2018-03-22T02:42:55.224Z,57.20
2018-03-22T02:45:24.244Z,57.20
2018-03-22T02:47:53.226Z,57.20
2018-03-22T02:50:21.471Z,57.20
2018-03-22T02:52:49.710Z,57.10
2018-03-22T02:55:17.931Z,57.10
2018-03-22T02:57:46.940Z,57.00
2018-03-22T03:00:15.294Z,56.90
2018-03-22T03:02:43.496Z,56.90
2018-03-22T03:05:12.481Z,57.10
2018-03-22T03:07:40.774Z,57.10
2018-03-22T03:10:09.083Z,57.00
2018-03-22T03:12:37.326Z,56.90
2018-03-22T03:15:05.559Z,56.60
2018-03-22T03:17:33.841Z,56.50
2018-03-22T03:20:02.037Z,56.50
2018-03-22T03:22:31.050Z,56.30
2018-03-22T03:24:59.334Z,56.30
2018-03-22T03:27:27.582Z,56.30
2018-03-22T03:29:56.591Z,56.40
2018-03-22T03:32:24.896Z,56.30
2018-03-22T03:34:53.159Z,56.20
2018-03-22T03:37:21.407Z,56.00
2018-03-22T03:39:50.433Z,55.90
2018-03-22T03:42:18.659Z,55.90
2018-03-22T03:44:46.902Z,55.80
2018-03-22T03:47:15.134Z,55.80
2018-03-22T03:49:44.143Z,56.00
2018-03-22T03:52:12.419Z,56.00
2018-03-22T03:54:40.631Z,56.00
2018-03-22T03:57:08.854Z,55.90
2018-03-22T03:59:37.190Z,55.90
2018-03-22T04:02:06.936Z,55.60
2018-03-22T04:04:35.946Z,55.70
2018-03-22T04:07:04.175Z,55.70
2018-03-22T04:09:32.504Z,55.70
2018-03-22T04:12:00.744Z,55.50
2018-03-22T04:14:28.986Z,55.50
2018-03-22T04:16:57.253Z,56.10
2018-03-22T04:19:25.549Z,55.50
2018-03-22T04:21:53.701Z,55.40
2018-03-22T04:24:21.947Z,55.30
2018-03-22T04:26:50.969Z,55.30
2018-03-22T04:29:19.603Z,55.30
2018-03-22T04:31:47.830Z,55.30
2018-03-22T04:34:16.074Z,55.30
2018-03-22T04:36:44.362Z,55.30
2018-03-22T04:39:12.626Z,55.20
2018-03-22T04:41:41.615Z,55.10
2018-03-22T04:44:10.620Z,54.80
2018-03-22T04:46:39.633Z,54.90
2018-03-22T04:49:07.875Z,54.80
2018-03-22T04:51:36.870Z,55.40
2018-03-22T04:54:05.897Z,55.00
2018-03-22T04:56:34.144Z,54.90
2018-03-22T04:59:03.158Z,55.20
2018-03-22T05:01:31.411Z,55.20
2018-03-22T05:04:00.441Z,55.00
2018-03-22T05:06:28.803Z,55.00
2018-03-22T05:08:57.020Z,55.00
2018-03-22T05:11:25.243Z,55.00
2018-03-22T05:13:54.266Z,54.90
2018-03-22T05:16:22.494Z,54.80
2018-03-22T05:18:50.721Z,54.90
2018-03-22T05:21:18.958Z,54.90
2018-03-22T05:23:47.942Z,55.00
2018-03-22T05:26:16.967Z,55.00
2018-03-22T05:28:45.184Z,54.90
2018-03-22T05:31:13.437Z,54.90
2018-03-22T05:33:41.698Z,54.90
2018-03-22T05:36:09.983Z,54.90
2018-03-22T05:38:38.231Z,54.90
2018-03-22T05:41:07.225Z,54.90
2018-03-22T05:43:36.229Z,54.90
2018-03-22T05:46:04.486Z,54.80
2018-03-22T05:48:32.699Z,54.80
2018-03-22T05:51:00.948Z,54.80
2018-03-22T05:53:29.938Z,55.00
2018-03-22T05:55:58.970Z,54.90
2018-03-22T05:58:27.248Z,54.80
2018-03-22T06:00:55.489Z,54.90
2018-03-22T06:03:24.502Z,55.50
2018-03-22T06:05:52.734Z,55.50
2018-03-22T06:08:21.070Z,56.10
2018-03-22T06:10:49.309Z,56.80
2018-03-22T06:13:18.284Z,57.60
2018-03-22T06:15:47.316Z,58.00
2018-03-22T06:18:15.565Z,57.90
2018-03-22T06:20:44.563Z,58.60
2018-03-22T06:23:13.587Z,58.50
2018-03-22T06:25:41.829Z,58.50
2018-03-22T06:28:10.870Z,59.20
2018-03-22T06:30:39.141Z,58.70
2018-03-22T06:33:07.393Z,58.90
2018-03-22T06:35:35.629Z,58.80
2018-03-22T06:38:03.949Z,58.70
2018-03-22T06:40:32.983Z,58.00
2018-03-22T06:43:01.957Z,57.70
2018-03-22T06:45:30.240Z,57.60
2018-03-22T06:47:58.466Z,57.80
2018-03-22T06:50:27.471Z,57.90
2018-03-22T06:52:56.481Z,58.10
2018-03-22T06:55:24.720Z,58.10
2018-03-22T06:57:52.966Z,58.30
2018-03-22T07:00:21.187Z,58.30
2018-03-22T07:02:50.175Z,59.00
2018-03-22T07:05:18.478Z,59.00
2018-03-22T07:07:46.720Z,59.90
2018-03-22T07:10:14.937Z,60.20
2018-03-22T07:12:43.211Z,60.60
2018-03-22T07:15:11.454Z,60.90
2018-03-22T07:17:40.483Z,61.90
2018-03-22T07:20:08.723Z,61.80
2018-03-22T07:22:37.712Z,62.70
2018-03-22T07:25:06.735Z,63.30
2018-03-22T07:27:34.953Z,62.70
2018-03-22T07:30:03.214Z,63.20
2018-03-22T07:32:31.449Z,63.10
2018-03-22T07:35:00.481Z,63.70
2018-03-22T07:37:28.701Z,63.70
2018-03-22T07:39:56.982Z,63.80
2018-03-22T07:42:25.190Z,63.80
2018-03-22T07:44:53.475Z,63.90
2018-03-22T07:47:21.751Z,64.10
2018-03-22T07:49:50.729Z,64.10
2018-03-22T07:52:18.951Z,64.10
2018-03-22T07:54:47.187Z,64.00
2018-03-22T07:57:15.435Z,63.70
2018-03-22T07:59:44.452Z,63.70
2018-03-22T08:02:12.670Z,63.60
2018-03-22T08:04:40.924Z,63.60
2018-03-22T08:07:09.185Z,63.40
2018-03-22T08:09:37.399Z,63.60
2018-03-22T08:12:05.646Z,64.20
2018-03-22T08:14:33.979Z,63.90
2018-03-22T08:17:02.184Z,63.90
2018-03-22T08:19:30.431Z,64.20
2018-03-22T08:21:58.708Z,64.20
2018-03-22T08:24:26.928Z,64.40
2018-03-22T08:26:55.153Z,64.40
2018-03-22T08:29:23.465Z,64.30
2018-03-22T08:31:51.777Z,64.30
2018-03-22T08:34:20.032Z,64.50
2018-03-22T08:36:48.315Z,65.10
2018-03-22T08:39:16.542Z,64.70
2018-03-22T08:41:44.796Z,64.70
2018-03-22T08:44:13.023Z,64.40
2018-03-22T08:46:41.356Z,64.20
2018-03-22T08:49:09.573Z,64.30
2018-03-22T08:51:37.797Z,64.50
2018-03-22T08:54:06.042Z,64.80
2018-03-22T08:56:34.283Z,65.10
2018-03-22T08:59:03.304Z,64.70
2018-03-22T09:01:31.644Z,64.60
2018-03-22T09:03:59.841Z,64.80
2018-03-22T09:06:28.845Z,64.90
2018-03-22T09:08:57.132Z,64.90
2018-03-22T09:11:25.429Z,65.50
2018-03-22T09:13:53.646Z,65.60
2018-03-22T09:16:22.665Z,65.50
2018-03-22T09:18:50.965Z,65.50
2018-03-22T09:21:19.207Z,65.60
2018-03-22T09:23:48.199Z,65.80
2018-03-22T09:26:17.214Z,65.60
2018-03-22T09:28:45.448Z,65.50
2018-03-22T09:31:13.769Z,65.70
2018-03-22T09:33:42.005Z,65.70
2018-03-22T09:36:10.260Z,65.60
2018-03-22T09:38:38.473Z,65.70
2018-03-22T09:41:07.475Z,65.90
2018-03-22T09:43:36.652Z,65.70
2018-03-22T09:46:04.870Z,65.70
2018-03-22T09:48:33.142Z,65.90
2018-03-22T09:51:01.416Z,65.80
2018-03-22T09:53:30.397Z,66.00
2018-03-22T09:55:59.376Z,66.40
2018-03-22T09:58:28.373Z,66.20
2018-03-22T10:00:57.386Z,66.50
2018-03-22T10:03:25.631Z,66.40
2018-03-22T10:05:53.880Z,66.70
2018-03-22T10:08:22.101Z,66.70
2018-03-22T10:10:51.098Z,66.30
2018-03-22T10:13:20.137Z,66.20
2018-03-22T10:15:48.507Z,66.00
2018-03-22T10:18:16.725Z,66.00
2018-03-22T10:20:44.948Z,66.00
2018-03-22T10:23:13.199Z,65.80
2018-03-22T10:25:42.190Z,66.20
2018-03-22T10:28:11.201Z,66.20
2018-03-22T10:30:39.428Z,66.20
2018-03-22T10:33:07.690Z,66.30
2018-03-22T10:35:35.934Z,66.90
2018-03-22T10:38:04.202Z,66.90
2018-03-22T10:40:32.427Z,67.00
2018-03-22T10:43:00.774Z,66.70
2018-03-22T10:45:28.995Z,66.80
2018-03-22T10:47:57.215Z,66.60
2018-03-22T10:50:25.452Z,66.90
2018-03-22T10:52:54.496Z,67.00
2018-03-22T10:55:22.735Z,66.90
2018-03-22T10:57:51.771Z,67.00
2018-03-22T11:03:28.086Z,66.90
2018-03-22T11:05:56.334Z,67.20
2018-03-22T11:08:24.566Z,67.00
2018-03-22T11:10:53.565Z,67.00
2018-03-22T11:13:22.605Z,67.10
2018-03-22T11:15:50.867Z,67.00
2018-03-22T11:18:19.123Z,67.10
2018-03-22T11:20:47.416Z,66.80
2018-03-22T11:23:15.663Z,66.70
2018-03-22T11:25:44.658Z,67.30
2018-03-22T11:28:13.722Z,67.20
2018-03-22T11:30:41.951Z,67.20
2018-03-22T11:33:10.223Z,66.80
2018-03-22T11:35:39.665Z,66.70
2018-03-22T11:38:07.877Z,66.90
2018-03-22T11:40:36.920Z,67.20
2018-03-22T11:43:05.271Z,66.60
2018-03-22T11:45:33.517Z,66.80
2018-03-22T11:48:01.749Z,66.90
2018-03-22T11:50:29.998Z,67.00
2018-03-22T11:52:58.226Z,67.10
2018-03-22T11:55:26.467Z,67.00
2018-03-22T11:57:54.699Z,67.10
2018-03-22T12:00:23.722Z,67.40
2018-03-22T12:02:51.984Z,67.30
2018-03-22T12:05:20.994Z,67.40
2018-03-22T12:07:49.217Z,67.40
2018-03-22T12:10:17.467Z,68.00
2018-03-22T12:12:45.688Z,67.90
2018-03-22T12:15:14.019Z,68.00
2018-03-22T12:17:42.270Z,67.90
2018-03-22T12:20:10.529Z,68.00
2018-03-22T12:22:39.554Z,68.40
2018-03-22T12:25:07.794Z,68.40
2018-03-22T12:27:36.821Z,68.40
2018-03-22T12:30:05.049Z,68.40
2018-03-22T12:32:33.296Z,68.70
2018-03-22T12:35:01.524Z,68.80
2018-03-22T12:37:30.551Z,68.60
2018-03-22T12:39:58.817Z,68.60
2018-03-22T12:42:27.044Z,68.60
2018-03-22T12:44:55.260Z,68.90
2018-03-22T12:47:23.494Z,68.80
2018-03-22T12:49:51.750Z,69.00
2018-03-22T12:52:20.004Z,69.30
2018-03-22T12:54:48.246Z,69.30
2018-03-22T12:57:17.278Z,69.40
2018-03-22T12:59:45.525Z,69.30
2018-03-22T13:02:13.754Z,69.30
2018-03-22T13:04:42.030Z,69.50
2018-03-22T13:07:10.246Z,69.40
2018-03-22T13:09:39.275Z,69.80
2018-03-22T13:12:07.508Z,69.80
2018-03-22T13:14:36.530Z,70.10
2018-03-22T13:17:04.766Z,70.00
2018-03-22T13:19:32.990Z,70.20
2018-03-22T13:22:01.258Z,70.20
2018-03-22T13:24:29.473Z,70.50
2018-03-22T13:26:57.730Z,70.60
2018-03-22T13:29:25.978Z,70.70
2018-03-22T13:31:54.992Z,71.30
2018-03-22T13:34:23.253Z,71.20
2018-03-22T13:36:51.492Z,71.30
2018-03-22T13:39:19.765Z,71.00
2018-03-22T13:41:47.965Z,71.40
2018-03-22T13:44:17.000Z,71.90
2018-03-22T13:46:45.229Z,71.80
2018-03-22T13:49:14.246Z,71.80
2018-03-22T13:51:42.458Z,71.70
2018-03-22T13:54:10.677Z,71.60
2018-03-22T13:56:38.989Z,71.80
2018-03-22T13:59:07.242Z,71.80
2018-03-22T14:01:35.479Z,71.50
2018-03-22T14:04:03.706Z,71.80
2018-03-22T14:06:31.966Z,71.60
2018-03-22T14:09:00.946Z,71.70
2018-03-22T14:11:29.959Z,71.90
2018-03-22T14:13:58.190Z,71.90
2018-03-22T14:16:26.447Z,71.80
2018-03-22T14:18:54.677Z,71.90
2018-03-22T14:21:23.669Z,72.00
2018-03-22T14:23:52.674Z,72.20
2018-03-22T14:26:20.957Z,72.20
2018-03-22T14:28:49.200Z,72.30
2018-03-22T14:31:17.481Z,72.20
2018-03-22T14:33:45.835Z,72.10
2018-03-22T14:36:14.073Z,72.10
2018-03-22T14:38:42.345Z,72.20
2018-03-22T14:41:12.055Z,72.20
2018-03-22T14:43:40.326Z,72.20
2018-03-22T14:46:09.310Z,72.00
2018-03-22T14:48:38.918Z,71.90
2018-03-22T14:51:07.184Z,71.80
2018-03-22T14:53:36.175Z,72.00
2018-03-22T14:56:04.402Z,72.00
2018-03-22T14:58:32.763Z,72.00
2018-03-22T15:01:00.984Z,72.00
2018-03-22T15:03:29.993Z,72.00
2018-03-22T15:05:58.215Z,72.00
2018-03-22T15:08:26.454Z,71.80
2018-03-22T15:10:55.439Z,72.00
2018-03-22T15:13:24.475Z,71.90
2018-03-22T15:15:52.690Z,71.90
2018-03-22T15:18:20.931Z,71.90
2018-03-22T15:20:49.160Z,72.20
2018-03-22T15:23:18.190Z,72.60
2018-03-22T15:25:46.466Z,72.50
2018-03-22T15:28:14.799Z,72.60
2018-03-22T15:30:42.925Z,72.60
2018-03-22T15:33:11.155Z,72.40
2018-03-22T15:35:40.173Z,72.60
2018-03-22T15:38:08.469Z,72.50
2018-03-22T15:40:36.714Z,72.90
2018-03-22T15:43:05.704Z,73.40
2018-03-22T15:45:34.737Z,73.40
2018-03-22T15:48:03.005Z,73.40
2018-03-22T15:50:31.224Z,73.40
2018-03-22T15:52:59.471Z,73.60
2018-03-22T15:55:27.706Z,73.60
2018-03-22T15:57:56.714Z,73.40
2018-03-22T16:00:24.983Z,73.40
2018-03-22T16:02:53.970Z,73.30
2018-03-22T16:05:23.047Z,73.40
2018-03-22T16:07:51.260Z,73.40
2018-03-22T16:10:19.484Z,73.40
2018-03-22T16:12:47.725Z,73.60
2018-03-22T16:15:15.938Z,73.40
2018-03-22T16:17:44.246Z,73.60
2018-03-22T16:20:12.435Z,73.70
2018-03-22T16:22:40.675Z,73.70
2018-03-22T16:25:08.953Z,73.70
2018-03-22T16:27:37.149Z,73.60
2018-03-22T16:30:06.128Z,73.70
2018-03-22T16:32:35.130Z,73.60
2018-03-22T16:35:04.130Z,73.90
2018-03-22T16:37:33.144Z,74.10
2018-03-22T16:40:01.416Z,74.00
2018-03-22T16:42:29.663Z,74.10
2018-03-22T16:44:57.902Z,75.00
2018-03-22T16:47:26.147Z,74.00
2018-03-22T16:49:54.396Z,73.90
2018-03-22T16:52:23.399Z,74.00
2018-03-22T16:54:52.412Z,73.90
2018-03-22T16:57:20.637Z,73.90
2018-03-22T16:59:48.905Z,74.00
2018-03-22T17:02:17.126Z,74.30
2018-03-22T17:04:45.347Z,74.40
2018-03-22T17:07:13.593Z,74.30
2018-03-22T17:09:41.842Z,74.30
2018-03-22T17:12:10.829Z,74.10
2018-03-22T17:14:39.834Z,73.90
2018-03-22T17:17:08.835Z,73.70
2018-03-22T17:19:37.123Z,73.70
2018-03-22T17:22:07.001Z,74.40
2018-03-22T17:24:36.023Z,73.60
2018-03-22T17:27:04.265Z,73.60
2018-03-22T17:29:32.484Z,73.40
2018-03-22T17:32:00.716Z,73.40
2018-03-22T17:34:28.973Z,73.30
2018-03-22T17:36:57.376Z,73.40
2018-03-22T17:39:25.585Z,73.40
2018-03-22T17:41:53.829Z,73.50
2018-03-22T17:44:22.107Z,73.50
2018-03-22T17:46:51.138Z,74.30
2018-03-22T17:49:20.139Z,73.60
2018-03-22T17:51:48.385Z,73.50
2018-03-22T17:54:17.373Z,73.70
2018-03-22T17:56:46.386Z,73.70
2018-03-22T17:59:14.662Z,73.60
2018-03-22T18:01:42.904Z,73.70
2018-03-22T18:04:12.242Z,73.70
2018-03-22T18:06:40.494Z,73.80
2018-03-22T18:09:09.681Z,73.60
2018-03-22T18:11:37.903Z,73.60
2018-03-22T18:14:06.125Z,73.80
2018-03-22T18:16:34.378Z,73.90
2018-03-22T18:19:02.611Z,73.80
2018-03-22T18:21:31.712Z,73.90
2018-03-22T18:23:59.967Z,73.90
2018-03-22T18:26:28.969Z,73.70
2018-03-22T18:28:57.953Z,73.70
2018-03-22T18:31:26.981Z,73.90
2018-03-22T18:33:55.221Z,73.70
2018-03-22T18:36:23.467Z,73.70
2018-03-22T18:38:51.721Z,73.80
2018-03-22T18:41:19.987Z,73.90
2018-03-22T18:43:48.212Z,73.70
2018-03-22T18:46:16.458Z,73.70
2018-03-22T18:48:44.677Z,73.80
2018-03-22T18:51:13.711Z,74.50
2018-03-22T18:53:41.946Z,73.90
2018-03-22T18:56:10.986Z,73.90
2018-03-22T18:58:39.249Z,73.90
2018-03-22T19:01:07.503Z,73.60
2018-03-22T19:03:36.822Z,73.60
2018-03-22T19:06:05.076Z,73.60
2018-03-22T19:08:34.062Z,74.00
2018-03-22T19:11:02.439Z,73.90
2018-03-22T19:13:30.779Z,74.00
2018-03-22T19:15:59.049Z,73.90
2018-03-22T19:18:27.344Z,73.90
2018-03-22T19:20:55.567Z,74.00
2018-03-22T19:23:24.590Z,73.90
2018-03-22T19:25:52.830Z,73.90
2018-03-22T19:28:21.843Z,74.10
2018-03-22T19:30:50.087Z,74.10
2018-03-22T19:33:18.354Z,74.30
2018-03-22T19:35:46.621Z,74.10
2018-03-22T19:38:14.867Z,74.10
2018-03-22T19:40:43.102Z,74.10
2018-03-22T19:43:12.111Z,74.30
2018-03-22T19:45:41.113Z,74.20
2018-03-22T19:48:09.334Z,74.10
2018-03-22T19:50:37.627Z,74.30
2018-03-22T19:53:05.811Z,74.40
2018-03-22T19:55:34.838Z,74.60
2018-03-22T19:58:03.056Z,74.40
2018-03-22T20:00:31.288Z,74.70
2018-03-22T20:02:59.571Z,74.70
2018-03-22T20:05:27.833Z,74.80
2018-03-22T20:07:56.030Z,74.80
2018-03-22T20:10:24.254Z,74.80
2018-03-22T20:12:52.597Z,74.80
2018-03-22T20:15:20.847Z,75.10
2018-03-22T20:17:49.065Z,75.10
2018-03-22T20:20:17.323Z,75.20
2018-03-22T20:22:45.543Z,75.00
2018-03-22T20:25:14.532Z,75.10
2018-03-22T20:27:42.787Z,75.10
2018-03-22T20:30:11.120Z,75.10
2018-03-22T20:32:39.399Z,75.10
2018-03-22T20:35:07.672Z,75.30
2018-03-22T20:37:35.931Z,75.40
2018-03-22T20:40:04.922Z,75.10
2018-03-22T20:42:33.941Z,75.20
2018-03-22T20:45:02.184Z,75.20
2018-03-22T20:47:30.407Z,75.90
2018-03-22T20:49:58.649Z,74.40
2018-03-22T20:52:27.797Z,75.30
2018-03-22T20:54:56.034Z,75.30
2018-03-22T20:57:24.281Z,75.40
2018-03-22T20:59:52.551Z,75.90
2018-03-22T21:02:20.764Z,76.10
2018-03-22T21:04:48.989Z,76.00
2018-03-22T21:07:17.227Z,75.70
2018-03-22T21:09:45.453Z,75.70
2018-03-22T21:12:13.703Z,75.50
2018-03-22T21:14:41.933Z,75.50
2018-03-22T21:17:10.222Z,75.50
2018-03-22T21:19:38.493Z,75.70
2018-03-22T21:22:06.734Z,75.50
2018-03-22T21:24:34.937Z,75.50
2018-03-22T21:27:03.298Z,75.60
2018-03-22T21:29:32.316Z,75.50
2018-03-22T21:32:00.567Z,75.40
2018-03-22T21:34:29.571Z,74.70
2018-03-22T21:36:58.554Z,75.40
2018-03-22T21:39:27.573Z,76.10
2018-03-22T21:42:05.742Z,75.40
2018-03-22T21:44:33.979Z,75.30
2018-03-22T21:47:14.046Z,75.30
2018-03-22T21:49:42.291Z,75.30
2018-03-22T21:55:12.445Z,75.40
2018-03-22T21:57:40.658Z,75.50
2018-03-22T22:00:08.910Z,75.40
2018-03-22T22:02:37.126Z,75.30
2018-03-22T22:05:05.434Z,75.30
2018-03-22T22:07:33.688Z,75.40
2018-03-22T22:10:02.698Z,75.30
2018-03-22T22:12:30.943Z,75.30
2018-03-22T22:14:59.259Z,75.00
2018-03-22T22:17:27.517Z,74.90
2018-03-22T22:19:56.514Z,75.00
2018-03-22T22:22:25.517Z,74.90
2018-03-22T22:24:53.745Z,74.80
2018-03-22T22:27:22.010Z,74.70
2018-03-22T22:29:50.258Z,74.70
2018-03-22T22:32:18.480Z,74.70
2018-03-22T22:34:46.770Z,75.20
2018-03-22T22:37:14.993Z,75.30
2018-03-22T22:39:43.252Z,76.00
2018-03-22T22:42:11.470Z,75.20
2018-03-22T22:44:39.711Z,75.40
2018-03-22T22:47:07.954Z,75.40
2018-03-22T22:49:36.199Z,74.60
2018-03-22T22:52:04.453Z,75.60
2018-03-22T22:54:32.675Z,74.90
2018-03-22T22:57:00.990Z,74.70
2018-03-22T22:59:29.266Z,74.30
2018-03-22T23:01:57.490Z,75.00
2018-03-22T23:04:25.738Z,75.00
2018-03-22T23:06:53.986Z,74.70
2018-03-22T23:09:22.212Z,74.70
2018-03-22T23:11:50.554Z,75.10
2018-03-22T23:14:18.785Z,75.30
2018-03-22T23:16:47.101Z,75.10
2018-03-22T23:19:15.370Z,74.90
2018-03-22T23:21:43.596Z,74.90
2018-03-22T23:24:11.856Z,75.20
2018-03-22T23:26:40.070Z,75.30
2018-03-22T23:29:08.342Z,75.00
2018-03-22T23:31:36.534Z,74.80
2018-03-22T23:34:05.546Z,74.60
2018-03-22T23:36:33.773Z,74.50
2018-03-22T23:39:02.016Z,74.60
2018-03-22T23:41:30.281Z,74.50
2018-03-22T23:43:58.525Z,74.60
2018-03-22T23:46:27.526Z,74.40
2018-03-22T23:48:56.530Z,74.30
2018-03-22T23:51:24.790Z,74.20
2018-03-22T23:53:53.811Z,74.70
2018-03-22T23:56:22.049Z,74.60
2018-03-22T23:58:50.283Z,74.80
